sensor_id;sensor_type;location;lat;lon;timestamp;temperature;humidity
41953;DHT22;63613;28.200;112.870;2023-01-24T00:02:12;7.90;55.00
41953;DHT22;63613;28.200;112.870;2023-01-24T00:04:55;7.90;55.00
41953;DHT22;63613;28.200;112.870;2023-01-24T00:07:22;7.90;55.00
41953;DHT22;63613;28.200;112.870;2023-01-24T00:09:49;7.90;54.90
41953;DHT22;63613;28.200;112.870;2023-01-24T00:12:15;7.90;55.00
41953;DHT22;63613;28.200;112.870;2023-01-24T00:14:42;7.90;54.90
41953;DHT22;63613;28.200;112.870;2023-01-24T00:17:09;8.00;54.80
41953;DHT22;63613;28.200;112.870;2023-01-24T00:19:36;8.00;54.80
41953;DHT22;63613;28.200;112.870;2023-01-24T00:22:03;8.00;54.80
41953;DHT22;63613;28.200;112.870;2023-01-24T00:24:30;8.00;54.80
41953;DHT22;63613;28.200;112.870;2023-01-24T00:26:59;8.00;54.70
41953;DHT22;63613;28.200;112.870;2023-01-24T00:29:26;8.00;54.80
41953;DHT22;63613;28.200;112.870;2023-01-24T00:31:53;8.10;54.60
41953;DHT22;63613;28.200;112.870;2023-01-24T00:34:23;8.10;54.60
41953;DHT22;63613;28.200;112.870;2023-01-24T00:37:10;8.10;54.40
41953;DHT22;63613;28.200;112.870;2023-01-24T00:39:36;8.10;54.30
41953;DHT22;63613;28.200;112.870;2023-01-24T00:42:03;8.10;54.20
41953;DHT22;63613;28.200;112.870;2023-01-24T00:44:30;8.10;54.00
41953;DHT22;63613;28.200;112.870;2023-01-24T00:46:57;8.20;54.10
41953;DHT22;63613;28.200;112.870;2023-01-24T00:49:24;8.10;54.10
41953;DHT22;63613;28.200;112.870;2023-01-24T00:51:51;8.20;54.00
41953;DHT22;63613;28.200;112.870;2023-01-24T00:54:17;8.10;54.00
41953;DHT22;63613;28.200;112.870;2023-01-24T00:56:44;8.20;54.00
41953;DHT22;63613;28.200;112.870;2023-01-24T00:59:11;8.20;53.90
41953;DHT22;63613;28.200;112.870;2023-01-24T01:01:38;8.20;53.80
41953;DHT22;63613;28.200;112.870;2023-01-24T01:04:05;8.20;53.80
41953;DHT22;63613;28.200;112.870;2023-01-24T01:06:32;8.20;53.60
41953;DHT22;63613;28.200;112.870;2023-01-24T01:09:02;8.30;53.60
41953;DHT22;63613;28.200;112.870;2023-01-24T01:11:29;8.20;53.60
41953;DHT22;63613;28.200;112.870;2023-01-24T01:13:56;8.30;53.60
41953;DHT22;63613;28.200;112.870;2023-01-24T01:16:24;8.30;53.70
41953;DHT22;63613;28.200;112.870;2023-01-24T01:18:54;8.30;54.00
41953;DHT22;63613;28.200;112.870;2023-01-24T01:21:22;8.30;54.30
41953;DHT22;63613;28.200;112.870;2023-01-24T01:23:52;8.40;54.90
41953;DHT22;63613;28.200;112.870;2023-01-24T01:26:21;8.40;55.10
41953;DHT22;63613;28.200;112.870;2023-01-24T01:28:48;8.50;55.20
41953;DHT22;63613;28.200;112.870;2023-01-24T01:31:15;8.60;55.50
41953;DHT22;63613;28.200;112.870;2023-01-24T01:33:45;8.60;55.60
41953;DHT22;63613;28.200;112.870;2023-01-24T01:36:12;8.70;55.70
41953;DHT22;63613;28.200;112.870;2023-01-24T01:38:42;8.70;55.90
41953;DHT22;63613;28.200;112.870;2023-01-24T01:41:12;8.80;56.10
41953;DHT22;63613;28.200;112.870;2023-01-24T01:43:40;8.80;56.50
41953;DHT22;63613;28.200;112.870;2023-01-24T01:46:30;8.90;56.70
41953;DHT22;63613;28.200;112.870;2023-01-24T01:49:21;8.90;57.10
41953;DHT22;63613;28.200;112.870;2023-01-24T01:51:55;9.00;57.50
41953;DHT22;63613;28.200;112.870;2023-01-24T01:54:32;9.10;57.70
41953;DHT22;63613;28.200;112.870;2023-01-24T01:57:12;9.10;57.70
41953;DHT22;63613;28.200;112.870;2023-01-24T01:59:46;9.10;58.00
41953;DHT22;63613;28.200;112.870;2023-01-24T02:02:14;9.20;58.10
41953;DHT22;63613;28.200;112.870;2023-01-24T02:04:55;9.30;58.50
41953;DHT22;63613;28.200;112.870;2023-01-24T02:10:23;9.40;58.70
41953;DHT22;63613;28.200;112.870;2023-01-24T02:12:54;9.50;59.10
41953;DHT22;63613;28.200;112.870;2023-01-24T02:15:22;9.60;59.20
41953;DHT22;63613;28.200;112.870;2023-01-24T02:18:09;9.70;59.50
41953;DHT22;63613;28.200;112.870;2023-01-24T02:20:46;9.70;59.90
41953;DHT22;63613;28.200;112.870;2023-01-24T02:26:26;9.90;60.00
41953;DHT22;63613;28.200;112.870;2023-01-24T02:28:58;10.00;59.30
41953;DHT22;63613;28.200;112.870;2023-01-24T02:31:26;10.00;59.10
41953;DHT22;63613;28.200;112.870;2023-01-24T02:33:53;10.10;59.60
41953;DHT22;63613;28.200;112.870;2023-01-24T02:39:19;10.30;59.20
41953;DHT22;63613;28.200;112.870;2023-01-24T02:42:03;10.40;59.00
41953;DHT22;63613;28.200;112.870;2023-01-24T02:47:03;10.50;59.10
41953;DHT22;63613;28.200;112.870;2023-01-24T02:49:30;10.60;59.00
41953;DHT22;63613;28.200;112.870;2023-01-24T02:51:57;10.70;58.90
41953;DHT22;63613;28.200;112.870;2023-01-24T02:54:43;10.80;58.70
41953;DHT22;63613;28.200;112.870;2023-01-24T02:57:09;10.90;58.70
41953;DHT22;63613;28.200;112.870;2023-01-24T02:59:54;10.90;58.50
41953;DHT22;63613;28.200;112.870;2023-01-24T03:02:21;11.00;58.30
41953;DHT22;63613;28.200;112.870;2023-01-24T03:04:47;11.00;58.40
41953;DHT22;63613;28.200;112.870;2023-01-24T03:07:15;11.10;58.10
41953;DHT22;63613;28.200;112.870;2023-01-24T03:09:42;11.20;58.10
41953;DHT22;63613;28.200;112.870;2023-01-24T03:12:15;11.30;58.10
41953;DHT22;63613;28.200;112.870;2023-01-24T03:15:00;11.40;57.80
41953;DHT22;63613;28.200;112.870;2023-01-24T03:17:45;11.40;58.10
41953;DHT22;63613;28.200;112.870;2023-01-24T03:20:30;11.50;58.30
41953;DHT22;63613;28.200;112.870;2023-01-24T03:23:16;11.50;58.20
41953;DHT22;63613;28.200;112.870;2023-01-24T03:26:01;11.70;57.60
41953;DHT22;63613;28.200;112.870;2023-01-24T03:28:46;11.80;57.70
41953;DHT22;63613;28.200;112.870;2023-01-24T03:31:31;11.90;57.60
41953;DHT22;63613;28.200;112.870;2023-01-24T03:34:16;11.90;57.40
41953;DHT22;63613;28.200;112.870;2023-01-24T03:36:59;12.00;57.50
41953;DHT22;63613;28.200;112.870;2023-01-24T03:39:32;12.10;56.60
41953;DHT22;63613;28.200;112.870;2023-01-24T03:42:16;12.10;56.30
41953;DHT22;63613;28.200;112.870;2023-01-24T03:44:43;12.30;56.20
41953;DHT22;63613;28.200;112.870;2023-01-24T03:47:10;12.40;56.00
41953;DHT22;63613;28.200;112.870;2023-01-24T03:49:37;12.40;56.20
41953;DHT22;63613;28.200;112.870;2023-01-24T03:52:21;12.50;55.40
41953;DHT22;63613;28.200;112.870;2023-01-24T03:54:55;12.60;55.40
41953;DHT22;63613;28.200;112.870;2023-01-24T03:57:25;12.60;55.30
41953;DHT22;63613;28.200;112.870;2023-01-24T03:59:52;12.70;55.10
41953;DHT22;63613;28.200;112.870;2023-01-24T04:02:20;12.80;54.50
41953;DHT22;63613;28.200;112.870;2023-01-24T04:04:48;12.90;54.60
41953;DHT22;63613;28.200;112.870;2023-01-24T04:07:33;12.90;54.50
41953;DHT22;63613;28.200;112.870;2023-01-24T04:10:20;13.10;54.40
41953;DHT22;63613;28.200;112.870;2023-01-24T04:12:47;13.10;54.20
41953;DHT22;63613;28.200;112.870;2023-01-24T04:15:19;13.20;54.10
41953;DHT22;63613;28.200;112.870;2023-01-24T04:17:53;13.30;53.60
41953;DHT22;63613;28.200;112.870;2023-01-24T04:20:25;13.40;53.40
41953;DHT22;63613;28.200;112.870;2023-01-24T04:22:55;13.40;53.20
41953;DHT22;63613;28.200;112.870;2023-01-24T04:25:23;13.50;53.40
41953;DHT22;63613;28.200;112.870;2023-01-24T04:27:52;13.50;53.40
41953;DHT22;63613;28.200;112.870;2023-01-24T04:30:19;13.60;52.80
41953;DHT22;63613;28.200;112.870;2023-01-24T04:32:48;13.80;52.50
41953;DHT22;63613;28.200;112.870;2023-01-24T04:35:17;13.80;52.50
41953;DHT22;63613;28.200;112.870;2023-01-24T04:37:45;13.90;52.20
41953;DHT22;63613;28.200;112.870;2023-01-24T04:40:15;13.90;51.30
41953;DHT22;63613;28.200;112.870;2023-01-24T04:42:42;14.00;51.00
41953;DHT22;63613;28.200;112.870;2023-01-24T04:45:10;14.00;50.90
41953;DHT22;63613;28.200;112.870;2023-01-24T04:47:37;14.00;50.80
41953;DHT22;63613;28.200;112.870;2023-01-24T04:50:08;14.10;50.80
41953;DHT22;63613;28.200;112.870;2023-01-24T04:52:55;14.10;50.90
41953;DHT22;63613;28.200;112.870;2023-01-24T04:55:22;14.20;50.70
41953;DHT22;63613;28.200;112.870;2023-01-24T04:57:52;14.30;50.60
41953;DHT22;63613;28.200;112.870;2023-01-24T05:00:19;14.30;50.50
41953;DHT22;63613;28.200;112.870;2023-01-24T05:02:46;14.30;50.30
41953;DHT22;63613;28.200;112.870;2023-01-24T05:05:14;14.40;50.10
41953;DHT22;63613;28.200;112.870;2023-01-24T05:07:41;14.40;50.00
41953;DHT22;63613;28.200;112.870;2023-01-24T05:10:12;14.40;49.70
41953;DHT22;63613;28.200;112.870;2023-01-24T05:12:41;14.50;49.50
41953;DHT22;63613;28.200;112.870;2023-01-24T05:15:08;14.60;49.20
41953;DHT22;63613;28.200;112.870;2023-01-24T05:17:35;14.60;49.10
41953;DHT22;63613;28.200;112.870;2023-01-24T05:20:05;14.60;48.80
41953;DHT22;63613;28.200;112.870;2023-01-24T05:22:32;14.70;48.60
41953;DHT22;63613;28.200;112.870;2023-01-24T05:24:59;14.70;48.50
41953;DHT22;63613;28.200;112.870;2023-01-24T05:27:26;14.70;48.50
41953;DHT22;63613;28.200;112.870;2023-01-24T05:29:55;14.70;48.20
41953;DHT22;63613;28.200;112.870;2023-01-24T05:32:22;14.70;48.40
41953;DHT22;63613;28.200;112.870;2023-01-24T05:34:49;14.70;48.40
41953;DHT22;63613;28.200;112.870;2023-01-24T05:37:16;14.80;48.00
41953;DHT22;63613;28.200;112.870;2023-01-24T05:39:42;14.80;48.00
41953;DHT22;63613;28.200;112.870;2023-01-24T05:42:09;14.80;48.00
41953;DHT22;63613;28.200;112.870;2023-01-24T05:44:36;14.90;48.00
41953;DHT22;63613;28.200;112.870;2023-01-24T05:47:03;14.90;47.90
41953;DHT22;63613;28.200;112.870;2023-01-24T05:49:36;15.00;47.30
41953;DHT22;63613;28.200;112.870;2023-01-24T05:52:03;15.10;47.10
41953;DHT22;63613;28.200;112.870;2023-01-24T05:54:30;15.10;46.70
41953;DHT22;63613;28.200;112.870;2023-01-24T05:56:56;15.20;46.20
41953;DHT22;63613;28.200;112.870;2023-01-24T05:59:23;15.30;45.60
41953;DHT22;63613;28.200;112.870;2023-01-24T06:01:51;15.30;44.80
41953;DHT22;63613;28.200;112.870;2023-01-24T06:04:18;15.40;44.30
41953;DHT22;63613;28.200;112.870;2023-01-24T06:06:45;15.40;44.20
41953;DHT22;63613;28.200;112.870;2023-01-24T06:09:12;15.50;44.10
41953;DHT22;63613;28.200;112.870;2023-01-24T06:11:39;15.60;44.30
41953;DHT22;63613;28.200;112.870;2023-01-24T06:14:06;15.70;43.90
41953;DHT22;63613;28.200;112.870;2023-01-24T06:16:33;15.70;43.80
41953;DHT22;63613;28.200;112.870;2023-01-24T06:19:03;15.80;43.80
41953;DHT22;63613;28.200;112.870;2023-01-24T06:24:17;16.00;43.50
41953;DHT22;63613;28.200;112.870;2023-01-24T06:26:45;16.00;43.50
41953;DHT22;63613;28.200;112.870;2023-01-24T06:29:16;16.10;43.30
41953;DHT22;63613;28.200;112.870;2023-01-24T06:31:56;16.20;43.20
41953;DHT22;63613;28.200;112.870;2023-01-24T06:39:52;16.40;42.70
41953;DHT22;63613;28.200;112.870;2023-01-24T06:42:20;16.50;42.40
41953;DHT22;63613;28.200;112.870;2023-01-24T06:44:48;16.60;42.40
41953;DHT22;63613;28.200;112.870;2023-01-24T06:47:15;16.60;42.20
41953;DHT22;63613;28.200;112.870;2023-01-24T06:49:43;16.70;42.00
41953;DHT22;63613;28.200;112.870;2023-01-24T06:52:12;16.80;41.90
41953;DHT22;63613;28.200;112.870;2023-01-24T06:54:39;16.80;41.80
41953;DHT22;63613;28.200;112.870;2023-01-24T06:57:26;16.90;41.50
41953;DHT22;63613;28.200;112.870;2023-01-24T06:59:53;16.90;41.30
41953;DHT22;63613;28.200;112.870;2023-01-24T07:02:23;16.80;41.10
41953;DHT22;63613;28.200;112.870;2023-01-24T07:04:49;16.60;40.80
41953;DHT22;63613;28.200;112.870;2023-01-24T07:07:16;16.40;40.70
41953;DHT22;63613;28.200;112.870;2023-01-24T07:09:43;16.30;40.70
41953;DHT22;63613;28.200;112.870;2023-01-24T07:12:13;16.30;40.60
41953;DHT22;63613;28.200;112.870;2023-01-24T07:14:39;16.10;40.50
41953;DHT22;63613;28.200;112.870;2023-01-24T07:17:06;16.00;40.50
41953;DHT22;63613;28.200;112.870;2023-01-24T07:19:36;15.90;40.40
41953;DHT22;63613;28.200;112.870;2023-01-24T07:22:03;15.80;40.50
41953;DHT22;63613;28.200;112.870;2023-01-24T07:24:31;15.70;40.60
41953;DHT22;63613;28.200;112.870;2023-01-24T07:27:01;15.60;40.90
41953;DHT22;63613;28.200;112.870;2023-01-24T07:29:30;15.40;41.00
41953;DHT22;63613;28.200;112.870;2023-01-24T07:31:56;15.30;41.00
41953;DHT22;63613;28.200;112.870;2023-01-24T07:34:23;15.30;41.20
41953;DHT22;63613;28.200;112.870;2023-01-24T07:36:51;15.20;41.30
41953;DHT22;63613;28.200;112.870;2023-01-24T07:39:19;15.00;41.50
41953;DHT22;63613;28.200;112.870;2023-01-24T07:41:46;14.90;41.60
41953;DHT22;63613;28.200;112.870;2023-01-24T07:44:13;14.90;41.90
41953;DHT22;63613;28.200;112.870;2023-01-24T07:46:40;14.80;42.20
41953;DHT22;63613;28.200;112.870;2023-01-24T07:49:07;14.70;42.50
41953;DHT22;63613;28.200;112.870;2023-01-24T07:51:34;14.70;42.60
41953;DHT22;63613;28.200;112.870;2023-01-24T07:54:01;14.60;42.40
41953;DHT22;63613;28.200;112.870;2023-01-24T07:56:28;14.50;42.50
41953;DHT22;63613;28.200;112.870;2023-01-24T07:58:55;14.40;42.30
41953;DHT22;63613;28.200;112.870;2023-01-24T08:01:24;14.40;42.40
41953;DHT22;63613;28.200;112.870;2023-01-24T08:03:56;14.30;42.50
41953;DHT22;63613;28.200;112.870;2023-01-24T08:06:24;14.30;42.80
41953;DHT22;63613;28.200;112.870;2023-01-24T08:08:51;14.20;42.90
41953;DHT22;63613;28.200;112.870;2023-01-24T08:11:18;14.20;43.20
41953;DHT22;63613;28.200;112.870;2023-01-24T08:13:48;14.50;42.80
41953;DHT22;63613;28.200;112.870;2023-01-24T08:16:16;15.40;40.70
41953;DHT22;63613;28.200;112.870;2023-01-24T08:18:43;15.90;39.40
41953;DHT22;63613;28.200;112.870;2023-01-24T08:21:12;16.10;39.20
41953;DHT22;63613;28.200;112.870;2023-01-24T08:23:42;16.10;39.30
41953;DHT22;63613;28.200;112.870;2023-01-24T08:26:09;16.00;39.70
41953;DHT22;63613;28.200;112.870;2023-01-24T08:28:36;15.60;40.40
41953;DHT22;63613;28.200;112.870;2023-01-24T08:31:03;15.30;41.10
41953;DHT22;63613;28.200;112.870;2023-01-24T08:33:30;15.20;41.50
41953;DHT22;63613;28.200;112.870;2023-01-24T08:35:58;15.10;41.80
41953;DHT22;63613;28.200;112.870;2023-01-24T08:38:25;15.10;42.10
41953;DHT22;63613;28.200;112.870;2023-01-24T08:40:53;15.00;42.30
41953;DHT22;63613;28.200;112.870;2023-01-24T08:43:22;15.00;42.40
41953;DHT22;63613;28.200;112.870;2023-01-24T08:45:53;15.00;42.30
41953;DHT22;63613;28.200;112.870;2023-01-24T08:48:21;15.20;42.20
41953;DHT22;63613;28.200;112.870;2023-01-24T08:50:48;15.40;41.60
41953;DHT22;63613;28.200;112.870;2023-01-24T08:53:15;15.50;41.30
41953;DHT22;63613;28.200;112.870;2023-01-24T08:55:43;15.40;41.20
41953;DHT22;63613;28.200;112.870;2023-01-24T08:58:24;15.40;41.40
41953;DHT22;63613;28.200;112.870;2023-01-24T09:01:05;15.20;41.70
41953;DHT22;63613;28.200;112.870;2023-01-24T09:03:31;14.90;42.20
41953;DHT22;63613;28.200;112.870;2023-01-24T09:05:58;14.70;42.60
41953;DHT22;63613;28.200;112.870;2023-01-24T09:08:26;14.40;42.80
41953;DHT22;63613;28.200;112.870;2023-01-24T09:10:53;14.30;42.80
41953;DHT22;63613;28.200;112.870;2023-01-24T09:13:20;14.10;42.70
41953;DHT22;63613;28.200;112.870;2023-01-24T09:15:47;14.10;42.80
41953;DHT22;63613;28.200;112.870;2023-01-24T09:18:13;13.90;42.70
41953;DHT22;63613;28.200;112.870;2023-01-24T09:20:40;13.80;42.70
41953;DHT22;63613;28.200;112.870;2023-01-24T09:23:09;13.80;42.60
41953;DHT22;63613;28.200;112.870;2023-01-24T09:25:38;13.80;42.60
41953;DHT22;63613;28.200;112.870;2023-01-24T09:28:05;13.60;42.60
41953;DHT22;63613;28.200;112.870;2023-01-24T09:30:33;13.50;42.80
41953;DHT22;63613;28.200;112.870;2023-01-24T09:33:04;13.40;42.80
41953;DHT22;63613;28.200;112.870;2023-01-24T09:35:31;13.40;42.90
41953;DHT22;63613;28.200;112.870;2023-01-24T09:37:58;13.30;43.10
41953;DHT22;63613;28.200;112.870;2023-01-24T09:40:28;13.20;43.20
41953;DHT22;63613;28.200;112.870;2023-01-24T09:43:12;13.10;43.10
41953;DHT22;63613;28.200;112.870;2023-01-24T09:46:02;13.10;43.40
41953;DHT22;63613;28.200;112.870;2023-01-24T09:48:34;13.00;43.30
41953;DHT22;63613;28.200;112.870;2023-01-24T09:51:08;12.90;43.20
41953;DHT22;63613;28.200;112.870;2023-01-24T09:53:45;12.90;43.20
41953;DHT22;63613;28.200;112.870;2023-01-24T09:59:16;12.70;43.10
41953;DHT22;63613;28.200;112.870;2023-01-24T10:01:50;12.60;42.80
41953;DHT22;63613;28.200;112.870;2023-01-24T10:04:21;12.60;43.20
41953;DHT22;63613;28.200;112.870;2023-01-24T10:20:56;12.20;43.40
41953;DHT22;63613;28.200;112.870;2023-01-24T10:23:31;12.10;43.40
41953;DHT22;63613;28.200;112.870;2023-01-24T10:26:17;12.10;43.10
41953;DHT22;63613;28.200;112.870;2023-01-24T10:28:57;12.00;42.90
41953;DHT22;63613;28.200;112.870;2023-01-24T10:31:35;11.90;43.10
41953;DHT22;63613;28.200;112.870;2023-01-24T10:39:37;11.90;42.90
41953;DHT22;63613;28.200;112.870;2023-01-24T10:42:30;11.90;43.50
41953;DHT22;63613;28.200;112.870;2023-01-24T10:45:35;11.80;43.50
41953;DHT22;63613;28.200;112.870;2023-01-24T10:50:47;11.70;43.30
41953;DHT22;63613;28.200;112.870;2023-01-24T10:53:32;11.70;42.90
41953;DHT22;63613;28.200;112.870;2023-01-24T10:56:03;11.60;42.80
41953;DHT22;63613;28.200;112.870;2023-01-24T10:58:53;11.60;42.80
41953;DHT22;63613;28.200;112.870;2023-01-24T11:01:23;11.50;42.80
41953;DHT22;63613;28.200;112.870;2023-01-24T11:06:46;11.50;43.10
41953;DHT22;63613;28.200;112.870;2023-01-24T11:09:18;11.40;42.90
41953;DHT22;63613;28.200;112.870;2023-01-24T11:11:57;11.40;43.00
41953;DHT22;63613;28.200;112.870;2023-01-24T11:14:26;11.40;43.10
41953;DHT22;63613;28.200;112.870;2023-01-24T11:16:55;11.40;42.80
41953;DHT22;63613;28.200;112.870;2023-01-24T11:19:29;11.30;42.40
41953;DHT22;63613;28.200;112.870;2023-01-24T11:21:59;11.30;41.90
41953;DHT22;63613;28.200;112.870;2023-01-24T11:24:27;11.20;41.70
41953;DHT22;63613;28.200;112.870;2023-01-24T11:27:26;11.30;41.70
41953;DHT22;63613;28.200;112.870;2023-01-24T11:30:18;11.20;41.90
41953;DHT22;63613;28.200;112.870;2023-01-24T11:36:02;11.10;41.80
41953;DHT22;63613;28.200;112.870;2023-01-24T11:47:22;11.00;41.10
41953;DHT22;63613;28.200;112.870;2023-01-24T12:04:44;10.90;41.20
41953;DHT22;63613;28.200;112.870;2023-01-24T12:07:23;10.90;41.20
41953;DHT22;63613;28.200;112.870;2023-01-24T12:13:16;10.80;40.80
41953;DHT22;63613;28.200;112.870;2023-01-24T12:21:32;10.80;40.00
41953;DHT22;63613;28.200;112.870;2023-01-24T12:24:12;10.70;39.80
41953;DHT22;63613;28.200;112.870;2023-01-24T12:26:50;10.70;39.70
41953;DHT22;63613;28.200;112.870;2023-01-24T12:37:34;10.60;39.10
41953;DHT22;63613;28.200;112.870;2023-01-24T12:40:20;10.60;39.10
41953;DHT22;63613;28.200;112.870;2023-01-24T12:49:06;10.60;39.20
41953;DHT22;63613;28.200;112.870;2023-01-24T12:51:22;10.50;39.10
41953;DHT22;63613;28.200;112.870;2023-01-24T12:59:29;10.50;39.20
41953;DHT22;63613;28.200;112.870;2023-01-24T13:13:32;10.40;38.60
41953;DHT22;63613;28.200;112.870;2023-01-24T13:19:18;10.40;38.30
41953;DHT22;63613;28.200;112.870;2023-01-24T13:32:36;10.20;37.60
41953;DHT22;63613;28.200;112.870;2023-01-24T13:35:18;10.20;37.50
41953;DHT22;63613;28.200;112.870;2023-01-24T13:38:34;10.20;37.40
41953;DHT22;63613;28.200;112.870;2023-01-24T13:40:40;10.20;37.30
41953;DHT22;63613;28.200;112.870;2023-01-24T13:43:52;10.20;37.20
41953;DHT22;63613;28.200;112.870;2023-01-24T13:52:02;10.10;36.80
41953;DHT22;63613;28.200;112.870;2023-01-24T13:54:42;10.10;36.90
41953;DHT22;63613;28.200;112.870;2023-01-24T13:57:28;10.10;36.90
41953;DHT22;63613;28.200;112.870;2023-01-24T14:02:57;10.00;36.70
41953;DHT22;63613;28.200;112.870;2023-01-24T14:05:42;10.00;36.50
41953;DHT22;63613;28.200;112.870;2023-01-24T14:08:40;10.00;36.60
41953;DHT22;63613;28.200;112.870;2023-01-24T14:11:18;10.00;36.50
41953;DHT22;63613;28.200;112.870;2023-01-24T14:21:51;9.90;36.30
41953;DHT22;63613;28.200;112.870;2023-01-24T14:27:16;9.90;36.30
41953;DHT22;63613;28.200;112.870;2023-01-24T14:29:46;9.90;36.20
41953;DHT22;63613;28.200;112.870;2023-01-24T14:32:35;9.90;36.20
41953;DHT22;63613;28.200;112.870;2023-01-24T14:35:23;9.90;36.30
41953;DHT22;63613;28.200;112.870;2023-01-24T14:37:52;9.90;36.30
41953;DHT22;63613;28.200;112.870;2023-01-24T14:40:26;9.90;36.20
41953;DHT22;63613;28.200;112.870;2023-01-24T14:43:05;9.90;36.10
41953;DHT22;63613;28.200;112.870;2023-01-24T14:45:35;9.90;36.20
41953;DHT22;63613;28.200;112.870;2023-01-24T14:48:16;9.90;36.20
41953;DHT22;63613;28.200;112.870;2023-01-24T14:50:57;9.80;36.20
41953;DHT22;63613;28.200;112.870;2023-01-24T14:53:30;9.80;36.20
41953;DHT22;63613;28.200;112.870;2023-01-24T14:56:08;9.80;36.20
41953;DHT22;63613;28.200;112.870;2023-01-24T14:58:35;9.80;36.00
41953;DHT22;63613;28.200;112.870;2023-01-24T15:01:03;9.80;36.10
41953;DHT22;63613;28.200;112.870;2023-01-24T15:03:32;9.80;36.00
41953;DHT22;63613;28.200;112.870;2023-01-24T15:06:05;9.70;35.90
41953;DHT22;63613;28.200;112.870;2023-01-24T15:08:32;9.70;35.80
41953;DHT22;63613;28.200;112.870;2023-01-24T15:11:07;9.70;35.80
41953;DHT22;63613;28.200;112.870;2023-01-24T15:13:44;9.70;35.80
41953;DHT22;63613;28.200;112.870;2023-01-24T15:16:38;9.70;35.60
41953;DHT22;63613;28.200;112.870;2023-01-24T15:19:22;9.70;35.60
41953;DHT22;63613;28.200;112.870;2023-01-24T15:21:51;9.70;35.60
41953;DHT22;63613;28.200;112.870;2023-01-24T15:24:37;9.70;35.50
41953;DHT22;63613;28.200;112.870;2023-01-24T15:35:30;9.60;35.40
41953;DHT22;63613;28.200;112.870;2023-01-24T15:43:41;9.50;35.30
41953;DHT22;63613;28.200;112.870;2023-01-24T15:54:32;9.50;35.40
41953;DHT22;63613;28.200;112.870;2023-01-24T15:57:04;9.40;35.50
41953;DHT22;63613;28.200;112.870;2023-01-24T15:59:34;9.40;35.80
41953;DHT22;63613;28.200;112.870;2023-01-24T16:02:12;9.40;35.80
41953;DHT22;63613;28.200;112.870;2023-01-24T16:04:40;9.40;35.80
41953;DHT22;63613;28.200;112.870;2023-01-24T16:07:09;9.40;35.90
41953;DHT22;63613;28.200;112.870;2023-01-24T16:09:41;9.40;36.00
41953;DHT22;63613;28.200;112.870;2023-01-24T16:12:14;9.40;36.10
41953;DHT22;63613;28.200;112.870;2023-01-24T16:14:48;9.40;36.20
41953;DHT22;63613;28.200;112.870;2023-01-24T16:17:18;9.40;36.30
41953;DHT22;63613;28.200;112.870;2023-01-24T16:19:45;9.40;36.30
41953;DHT22;63613;28.200;112.870;2023-01-24T16:22:12;9.40;36.50
41953;DHT22;63613;28.200;112.870;2023-01-24T16:24:41;9.40;36.60
41953;DHT22;63613;28.200;112.870;2023-01-24T16:27:13;9.40;36.70
41953;DHT22;63613;28.200;112.870;2023-01-24T16:29:43;9.40;36.70
41953;DHT22;63613;28.200;112.870;2023-01-24T16:32:19;9.30;36.80
41953;DHT22;63613;28.200;112.870;2023-01-24T16:34:48;9.30;36.90
41953;DHT22;63613;28.200;112.870;2023-01-24T16:37:15;9.30;37.00
41953;DHT22;63613;28.200;112.870;2023-01-24T16:39:47;9.30;37.00
41953;DHT22;63613;28.200;112.870;2023-01-24T16:42:17;9.20;37.10
41953;DHT22;63613;28.200;112.870;2023-01-24T16:44:58;9.20;37.30
41953;DHT22;63613;28.200;112.870;2023-01-24T16:47:25;9.20;37.20
41953;DHT22;63613;28.200;112.870;2023-01-24T16:49:54;9.20;37.30
41953;DHT22;63613;28.200;112.870;2023-01-24T16:52:23;9.20;37.30
41953;DHT22;63613;28.200;112.870;2023-01-24T16:55:10;9.20;37.50
41953;DHT22;63613;28.200;112.870;2023-01-24T16:57:37;9.20;37.50
41953;DHT22;63613;28.200;112.870;2023-01-24T17:00:06;9.10;37.50
41953;DHT22;63613;28.200;112.870;2023-01-24T17:02:41;9.20;37.60
41953;DHT22;63613;28.200;112.870;2023-01-24T17:05:12;9.10;37.60
41953;DHT22;63613;28.200;112.870;2023-01-24T17:07:40;9.10;37.60
41953;DHT22;63613;28.200;112.870;2023-01-24T17:10:09;9.10;37.60
41953;DHT22;63613;28.200;112.870;2023-01-24T17:12:41;9.10;37.60
41953;DHT22;63613;28.200;112.870;2023-01-24T17:15:11;9.10;37.70
41953;DHT22;63613;28.200;112.870;2023-01-24T17:17:38;9.10;37.60
41953;DHT22;63613;28.200;112.870;2023-01-24T17:20:12;9.10;37.70
41953;DHT22;63613;28.200;112.870;2023-01-24T17:22:44;9.10;37.70
41953;DHT22;63613;28.200;112.870;2023-01-24T17:25:12;9.10;37.80
41953;DHT22;63613;28.200;112.870;2023-01-24T17:27:39;9.10;38.00
41953;DHT22;63613;28.200;112.870;2023-01-24T17:30:10;9.00;37.90
41953;DHT22;63613;28.200;112.870;2023-01-24T17:32:39;9.00;37.90
41953;DHT22;63613;28.200;112.870;2023-01-24T17:35:09;9.00;38.00
41953;DHT22;63613;28.200;112.870;2023-01-24T17:37:37;9.00;38.10
41953;DHT22;63613;28.200;112.870;2023-01-24T17:40:06;9.00;38.00
41953;DHT22;63613;28.200;112.870;2023-01-24T17:42:34;9.00;37.90
41953;DHT22;63613;28.200;112.870;2023-01-24T17:45:02;9.00;37.90
41953;DHT22;63613;28.200;112.870;2023-01-24T17:47:32;9.00;37.90
41953;DHT22;63613;28.200;112.870;2023-01-24T17:49:59;8.90;37.90
41953;DHT22;63613;28.200;112.870;2023-01-24T17:52:30;8.90;38.00
41953;DHT22;63613;28.200;112.870;2023-01-24T17:54:57;8.90;38.00
41953;DHT22;63613;28.200;112.870;2023-01-24T17:57:24;8.90;38.10
41953;DHT22;63613;28.200;112.870;2023-01-24T17:59:51;8.90;38.10
41953;DHT22;63613;28.200;112.870;2023-01-24T18:02:19;8.90;38.10
41953;DHT22;63613;28.200;112.870;2023-01-24T18:04:46;8.90;38.20
41953;DHT22;63613;28.200;112.870;2023-01-24T18:07:13;8.90;38.20
41953;DHT22;63613;28.200;112.870;2023-01-24T18:09:42;8.90;38.30
41953;DHT22;63613;28.200;112.870;2023-01-24T18:12:11;8.90;38.20
41953;DHT22;63613;28.200;112.870;2023-01-24T18:14:39;8.90;38.30
41953;DHT22;63613;28.200;112.870;2023-01-24T18:17:08;8.90;38.40
41953;DHT22;63613;28.200;112.870;2023-01-24T18:19:34;8.90;38.40
41953;DHT22;63613;28.200;112.870;2023-01-24T18:22:03;8.90;38.40
41953;DHT22;63613;28.200;112.870;2023-01-24T18:24:33;8.90;38.40
41953;DHT22;63613;28.200;112.870;2023-01-24T18:27:00;8.90;38.30